sensor_id;sensor_type;location;lat;lon;timestamp;P1;durP1;ratioP1;P2;durP2;ratioP2
38779;SDS011;29273;49.962;9.768;2023-06-22T00:01:18;3.13;;;2.83;;
38779;SDS011;29273;49.962;9.768;2023-06-22T00:03:44;4.05;;;3.60;;
38779;SDS011;29273;49.962;9.768;2023-06-22T00:06:09;4.22;;;3.10;;
38779;SDS011;29273;49.962;9.768;2023-06-22T00:08:35;3.65;;;3.10;;
38779;SDS011;29273;49.962;9.768;2023-06-22T00:11:00;3.63;;;3.20;;
38779;SDS011;29273;49.962;9.768;2023-06-22T00:13:26;3.15;;;2.88;;
38779;SDS011;29273;49.962;9.768;2023-06-22T00:15:51;3.20;;;2.90;;
38779;SDS011;29273;49.962;9.768;2023-06-22T00:18:17;3.38;;;3.08;;
38779;SDS011;29273;49.962;9.768;2023-06-22T00:20:42;3.70;;;3.08;;
38779;SDS011;29273;49.962;9.768;2023-06-22T00:23:08;3.78;;;3.15;;
38779;SDS011;29273;49.962;9.768;2023-06-22T00:25:34;3.40;;;3.10;;
38779;SDS011;29273;49.962;9.768;2023-06-22T00:28:01;3.30;;;3.00;;
38779;SDS011;29273;49.962;9.768;2023-06-22T00:30:27;3.75;;;3.42;;
38779;SDS011;29273;49.962;9.768;2023-06-22T00:32:56;4.22;;;3.83;;
38779;SDS011;29273;49.962;9.768;2023-06-22T00:35:22;3.72;;;3.42;;
38779;SDS011;29273;49.962;9.768;2023-06-22T00:37:47;3.25;;;2.97;;
38779;SDS011;29273;49.962;9.768;2023-06-22T00:40:13;3.40;;;3.10;;
38779;SDS011;29273;49.962;9.768;2023-06-22T00:42:40;3.67;;;3.30;;
38779;SDS011;29273;49.962;9.768;2023-06-22T00:45:07;3.78;;;3.40;;
38779;SDS011;29273;49.962;9.768;2023-06-22T00:47:34;3.70;;;3.40;;
38779;SDS011;29273;49.962;9.768;2023-06-22T00:50:03;3.83;;;3.30;;
38779;SDS011;29273;49.962;9.768;2023-06-22T00:52:32;4.00;;;3.65;;
38779;SDS011;29273;49.962;9.768;2023-06-22T00:55:00;5.70;;;3.35;;
38779;SDS011;29273;49.962;9.768;2023-06-22T00:57:27;5.35;;;3.40;;
38779;SDS011;29273;49.962;9.768;2023-06-22T00:59:54;3.47;;;3.05;;
38779;SDS011;29273;49.962;9.768;2023-06-22T01:02:20;3.63;;;3.33;;
38779;SDS011;29273;49.962;9.768;2023-06-22T01:04:46;3.20;;;2.90;;
38779;SDS011;29273;49.962;9.768;2023-06-22T01:09:59;4.88;;;3.40;;
38779;SDS011;29273;49.962;9.768;2023-06-22T01:12:33;3.72;;;3.42;;
38779;SDS011;29273;49.962;9.768;2023-06-22T01:15:08;3.42;;;3.13;;
38779;SDS011;29273;49.962;9.768;2023-06-22T01:17:37;4.07;;;3.70;;
38779;SDS011;29273;49.962;9.768;2023-06-22T01:20:09;4.40;;;3.47;;
38779;SDS011;29273;49.962;9.768;2023-06-22T01:22:46;3.90;;;3.50;;
38779;SDS011;29273;49.962;9.768;2023-06-22T01:25:53;3.75;;;3.28;;
38779;SDS011;29273;49.962;9.768;2023-06-22T01:28:37;3.75;;;3.30;;
38779;SDS011;29273;49.962;9.768;2023-06-22T01:31:10;3.25;;;2.90;;
38779;SDS011;29273;49.962;9.768;2023-06-22T01:33:37;3.67;;;3.38;;
38779;SDS011;29273;49.962;9.768;2023-06-22T01:36:06;3.90;;;3.53;;
38779;SDS011;29273;49.962;9.768;2023-06-22T01:38:32;4.07;;;3.38;;
38779;SDS011;29273;49.962;9.768;2023-06-22T01:40:59;3.53;;;3.15;;
38779;SDS011;29273;49.962;9.768;2023-06-22T01:43:29;4.47;;;3.30;;
38779;SDS011;29273;49.962;9.768;2023-06-22T01:45:56;3.50;;;3.20;;
38779;SDS011;29273;49.962;9.768;2023-06-22T01:48:22;3.50;;;3.20;;
38779;SDS011;29273;49.962;9.768;2023-06-22T01:50:48;4.32;;;3.70;;
38779;SDS011;29273;49.962;9.768;2023-06-22T01:53:14;3.30;;;3.00;;
38779;SDS011;29273;49.962;9.768;2023-06-22T01:55:40;3.63;;;3.33;;
38779;SDS011;29273;49.962;9.768;2023-06-22T01:58:05;3.60;;;3.30;;
38779;SDS011;29273;49.962;9.768;2023-06-22T02:00:31;4.00;;;3.60;;
38779;SDS011;29273;49.962;9.768;2023-06-22T02:05:39;4.13;;;3.67;;
38779;SDS011;29273;49.962;9.768;2023-06-22T02:08:28;4.30;;;3.80;;
38779;SDS011;29273;49.962;9.768;2023-06-22T02:10:58;3.97;;;3.58;;
38779;SDS011;29273;49.962;9.768;2023-06-22T02:13:25;3.70;;;3.40;;
38779;SDS011;29273;49.962;9.768;2023-06-22T02:15:52;4.28;;;3.83;;
38779;SDS011;29273;49.962;9.768;2023-06-22T02:18:18;5.65;;;3.72;;
38779;SDS011;29273;49.962;9.768;2023-06-22T02:20:45;4.28;;;3.88;;
38779;SDS011;29273;49.962;9.768;2023-06-22T02:23:11;4.00;;;3.60;;
38779;SDS011;29273;49.962;9.768;2023-06-22T02:25:36;4.20;;;3.78;;
38779;SDS011;29273;49.962;9.768;2023-06-22T02:28:03;5.57;;;3.70;;
38779;SDS011;29273;49.962;9.768;2023-06-22T02:30:29;4.32;;;3.92;;
38779;SDS011;29273;49.962;9.768;2023-06-22T02:32:54;4.07;;;3.70;;
38779;SDS011;29273;49.962;9.768;2023-06-22T02:35:25;3.88;;;3.58;;
38779;SDS011;29273;49.962;9.768;2023-06-22T02:37:51;4.38;;;3.60;;
38779;SDS011;29273;49.962;9.768;2023-06-22T02:40:17;4.25;;;3.85;;
38779;SDS011;29273;49.962;9.768;2023-06-22T02:42:42;4.05;;;3.75;;
38779;SDS011;29273;49.962;9.768;2023-06-22T02:45:08;4.57;;;4.18;;
38779;SDS011;29273;49.962;9.768;2023-06-22T02:47:34;4.68;;;4.18;;
38779;SDS011;29273;49.962;9.768;2023-06-22T02:50:00;5.68;;;4.15;;
38779;SDS011;29273;49.962;9.768;2023-06-22T02:52:26;5.10;;;4.38;;
38779;SDS011;29273;49.962;9.768;2023-06-22T02:54:52;4.00;;;3.60;;
38779;SDS011;29273;49.962;9.768;2023-06-22T02:57:18;3.72;;;3.42;;
38779;SDS011;29273;49.962;9.768;2023-06-22T02:59:43;4.20;;;3.80;;
38779;SDS011;29273;49.962;9.768;2023-06-22T03:02:11;3.85;;;3.55;;
38779;SDS011;29273;49.962;9.768;2023-06-22T03:04:37;3.92;;;3.58;;
38779;SDS011;29273;49.962;9.768;2023-06-22T03:07:02;4.22;;;3.83;;
38779;SDS011;29273;49.962;9.768;2023-06-22T03:09:30;4.47;;;4.07;;
38779;SDS011;29273;49.962;9.768;2023-06-22T03:11:56;3.88;;;3.55;;
38779;SDS011;29273;49.962;9.768;2023-06-22T03:14:25;3.70;;;3.40;;
38779;SDS011;29273;49.962;9.768;2023-06-22T03:16:52;4.10;;;3.70;;
38779;SDS011;29273;49.962;9.768;2023-06-22T03:19:18;3.97;;;3.30;;
38779;SDS011;29273;49.962;9.768;2023-06-22T03:21:44;4.18;;;3.78;;
38779;SDS011;29273;49.962;9.768;2023-06-22T03:24:10;3.75;;;3.40;;
38779;SDS011;29273;49.962;9.768;2023-06-22T03:26:37;4.05;;;3.67;;
38779;SDS011;29273;49.962;9.768;2023-06-22T03:29:02;3.72;;;3.30;;
38779;SDS011;29273;49.962;9.768;2023-06-22T03:31:29;3.58;;;3.28;;
38779;SDS011;29273;49.962;9.768;2023-06-22T03:33:55;3.50;;;3.20;;
38779;SDS011;29273;49.962;9.768;2023-06-22T03:36:22;4.05;;;3.40;;
38779;SDS011;29273;49.962;9.768;2023-06-22T03:38:48;4.07;;;3.63;;
38779;SDS011;29273;49.962;9.768;2023-06-22T03:41:15;3.92;;;3.53;;
38779;SDS011;29273;49.962;9.768;2023-06-22T03:43:41;3.75;;;3.45;;
38779;SDS011;29273;49.962;9.768;2023-06-22T03:46:07;3.67;;;3.38;;
38779;SDS011;29273;49.962;9.768;2023-06-22T03:48:33;3.65;;;3.35;;
38779;SDS011;29273;49.962;9.768;2023-06-22T03:50:59;3.70;;;3.35;;
38779;SDS011;29273;49.962;9.768;2023-06-22T03:53:25;3.78;;;3.47;;
38779;SDS011;29273;49.962;9.768;2023-06-22T03:55:51;3.63;;;3.33;;
38779;SDS011;29273;49.962;9.768;2023-06-22T03:58:18;3.85;;;3.42;;
38779;SDS011;29273;49.962;9.768;2023-06-22T04:00:51;3.97;;;3.58;;
38779;SDS011;29273;49.962;9.768;2023-06-22T04:03:17;3.42;;;3.13;;
38779;SDS011;29273;49.962;9.768;2023-06-22T04:05:44;3.60;;;3.30;;
38779;SDS011;29273;49.962;9.768;2023-06-22T04:08:12;3.70;;;3.33;;
38779;SDS011;29273;49.962;9.768;2023-06-22T04:10:38;3.53;;;3.22;;
38779;SDS011;29273;49.962;9.768;2023-06-22T04:13:04;3.97;;;3.67;;
38779;SDS011;29273;49.962;9.768;2023-06-22T04:15:29;3.55;;;3.25;;
38779;SDS011;29273;49.962;9.768;2023-06-22T04:17:55;3.97;;;3.67;;
38779;SDS011;29273;49.962;9.768;2023-06-22T04:20:21;4.03;;;3.63;;
38779;SDS011;29273;49.962;9.768;2023-06-22T04:22:47;4.20;;;3.53;;
38779;SDS011;29273;49.962;9.768;2023-06-22T04:25:12;4.30;;;3.85;;
38779;SDS011;29273;49.962;9.768;2023-06-22T04:27:38;4.55;;;4.15;;
38779;SDS011;29273;49.962;9.768;2023-06-22T04:30:08;3.90;;;3.55;;
38779;SDS011;29273;49.962;9.768;2023-06-22T04:32:34;3.55;;;3.25;;
38779;SDS011;29273;49.962;9.768;2023-06-22T04:35:04;4.22;;;3.83;;
38779;SDS011;29273;49.962;9.768;2023-06-22T04:37:31;3.83;;;3.35;;
38779;SDS011;29273;49.962;9.768;2023-06-22T04:39:57;3.22;;;2.85;;
38779;SDS011;29273;49.962;9.768;2023-06-22T04:42:25;3.53;;;3.22;;
38779;SDS011;29273;49.962;9.768;2023-06-22T04:44:53;3.85;;;3.55;;
38779;SDS011;29273;49.962;9.768;2023-06-22T04:47:19;4.28;;;3.88;;
38779;SDS011;29273;49.962;9.768;2023-06-22T04:49:44;3.67;;;3.38;;
38779;SDS011;29273;49.962;9.768;2023-06-22T04:52:11;3.85;;;3.50;;
38779;SDS011;29273;49.962;9.768;2023-06-22T04:54:37;3.90;;;3.60;;
38779;SDS011;29273;49.962;9.768;2023-06-22T04:57:04;3.95;;;3.65;;
38779;SDS011;29273;49.962;9.768;2023-06-22T04:59:35;5.10;;;3.37;;
38779;SDS011;29273;49.962;9.768;2023-06-22T05:02:02;3.88;;;3.58;;
38779;SDS011;29273;49.962;9.768;2023-06-22T05:04:28;5.43;;;3.40;;
38779;SDS011;29273;49.962;9.768;2023-06-22T05:06:58;4.07;;;3.67;;
38779;SDS011;29273;49.962;9.768;2023-06-22T05:09:25;3.88;;;3.58;;
38779;SDS011;29273;49.962;9.768;2023-06-22T05:11:51;4.10;;;3.70;;
38779;SDS011;29273;49.962;9.768;2023-06-22T05:14:16;4.20;;;3.28;;
38779;SDS011;29273;49.962;9.768;2023-06-22T05:16:43;4.32;;;3.90;;
38779;SDS011;29273;49.962;9.768;2023-06-22T05:19:10;4.50;;;3.28;;
38779;SDS011;29273;49.962;9.768;2023-06-22T05:21:36;4.03;;;3.63;;
38779;SDS011;29273;49.962;9.768;2023-06-22T05:24:02;4.40;;;3.85;;
38779;SDS011;29273;49.962;9.768;2023-06-22T05:26:31;3.70;;;3.40;;
38779;SDS011;29273;49.962;9.768;2023-06-22T05:28:59;4.38;;;3.97;;
38779;SDS011;29273;49.962;9.768;2023-06-22T05:31:26;3.78;;;3.47;;
38779;SDS011;29273;49.962;9.768;2023-06-22T05:33:52;4.32;;;3.92;;
38779;SDS011;29273;49.962;9.768;2023-06-22T05:36:19;4.07;;;3.63;;
38779;SDS011;29273;49.962;9.768;2023-06-22T05:38:46;5.20;;;4.13;;
38779;SDS011;29273;49.962;9.768;2023-06-22T05:41:12;5.32;;;4.35;;
38779;SDS011;29273;49.962;9.768;2023-06-22T05:43:39;4.72;;;4.28;;
38779;SDS011;29273;49.962;9.768;2023-06-22T05:46:05;4.75;;;4.10;;
38779;SDS011;29273;49.962;9.768;2023-06-22T05:48:30;4.75;;;4.15;;
38779;SDS011;29273;49.962;9.768;2023-06-22T05:50:56;5.38;;;4.07;;
38779;SDS011;29273;49.962;9.768;2023-06-22T05:53:21;4.47;;;4.05;;
38779;SDS011;29273;49.962;9.768;2023-06-22T05:55:47;3.97;;;3.67;;
38779;SDS011;29273;49.962;9.768;2023-06-22T05:58:13;5.55;;;3.88;;
38779;SDS011;29273;49.962;9.768;2023-06-22T06:00:39;4.28;;;3.88;;
38779;SDS011;29273;49.962;9.768;2023-06-22T06:03:05;4.13;;;3.78;;
38779;SDS011;29273;49.962;9.768;2023-06-22T06:05:32;4.40;;;4.00;;
38779;SDS011;29273;49.962;9.768;2023-06-22T06:08:02;4.40;;;4.00;;
38779;SDS011;29273;49.962;9.768;2023-06-22T06:10:30;4.28;;;3.92;;
38779;SDS011;29273;49.962;9.768;2023-06-22T06:12:56;3.95;;;3.65;;
38779;SDS011;29273;49.962;9.768;2023-06-22T06:15:22;4.35;;;3.95;;
38779;SDS011;29273;49.962;9.768;2023-06-22T06:17:48;4.57;;;4.03;;
38779;SDS011;29273;49.962;9.768;2023-06-22T06:20:15;4.25;;;3.85;;
38779;SDS011;29273;49.962;9.768;2023-06-22T06:22:44;4.40;;;4.00;;
38779;SDS011;29273;49.962;9.768;2023-06-22T06:25:09;5.38;;;3.90;;
38779;SDS011;29273;49.962;9.768;2023-06-22T06:27:35;4.60;;;4.20;;
38779;SDS011;29273;49.962;9.768;2023-06-22T06:30:00;4.25;;;3.85;;
38779;SDS011;29273;49.962;9.768;2023-06-22T06:32:27;4.32;;;3.92;;
38779;SDS011;29273;49.962;9.768;2023-06-22T06:34:53;5.10;;;4.28;;
38779;SDS011;29273;49.962;9.768;2023-06-22T06:37:18;4.20;;;3.80;;
38779;SDS011;29273;49.962;9.768;2023-06-22T06:39:44;4.25;;;3.95;;
38779;SDS011;29273;49.962;9.768;2023-06-22T06:42:09;4.35;;;3.95;;
38779;SDS011;29273;49.962;9.768;2023-06-22T06:44:36;4.82;;;4.43;;
38779;SDS011;29273;49.962;9.768;2023-06-22T06:47:03;7.20;;;4.40;;
38779;SDS011;29273;49.962;9.768;2023-06-22T06:49:29;4.80;;;4.40;;
38779;SDS011;29273;49.962;9.768;2023-06-22T06:51:55;4.82;;;4.40;;
38779;SDS011;29273;49.962;9.768;2023-06-22T06:54:21;4.68;;;4.28;;
38779;SDS011;29273;49.962;9.768;2023-06-22T06:56:47;5.35;;;4.85;;
38779;SDS011;29273;49.962;9.768;2023-06-22T06:59:14;4.45;;;4.05;;
38779;SDS011;29273;49.962;9.768;2023-06-22T07:01:40;4.93;;;4.53;;
38779;SDS011;29273;49.962;9.768;2023-06-22T07:04:06;5.20;;;4.30;;
38779;SDS011;29273;49.962;9.768;2023-06-22T07:06:32;4.90;;;4.50;;
38779;SDS011;29273;49.962;9.768;2023-06-22T07:08:59;4.38;;;3.97;;
38779;SDS011;29273;49.962;9.768;2023-06-22T07:11:25;5.00;;;4.60;;
38779;SDS011;29273;49.962;9.768;2023-06-22T07:13:50;5.00;;;4.60;;
38779;SDS011;29273;49.962;9.768;2023-06-22T07:16:16;4.32;;;3.97;;
38779;SDS011;29273;49.962;9.768;2023-06-22T07:18:41;4.97;;;4.57;;
38779;SDS011;29273;49.962;9.768;2023-06-22T07:21:07;4.40;;;4.00;;
38779;SDS011;29273;49.962;9.768;2023-06-22T07:23:32;4.88;;;4.38;;
38779;SDS011;29273;49.962;9.768;2023-06-22T07:25:58;4.70;;;4.35;;
38779;SDS011;29273;49.962;9.768;2023-06-22T07:28:27;5.13;;;4.68;;
38779;SDS011;29273;49.962;9.768;2023-06-22T07:30:56;4.80;;;4.40;;
38779;SDS011;29273;49.962;9.768;2023-06-22T07:33:22;5.25;;;4.85;;
38779;SDS011;29273;49.962;9.768;2023-06-22T07:35:47;4.97;;;4.47;;
38779;SDS011;29273;49.962;9.768;2023-06-22T07:38:13;5.07;;;4.68;;
38779;SDS011;29273;49.962;9.768;2023-06-22T07:40:40;4.72;;;4.30;;
38779;SDS011;29273;49.962;9.768;2023-06-22T07:43:07;5.95;;;5.32;;
38779;SDS011;29273;49.962;9.768;2023-06-22T07:45:32;5.00;;;4.60;;
38779;SDS011;29273;49.962;9.768;2023-06-22T07:48:00;5.30;;;4.90;;
38779;SDS011;29273;49.962;9.768;2023-06-22T07:50:26;5.20;;;4.75;;
38779;SDS011;29273;49.962;9.768;2023-06-22T07:52:51;5.10;;;4.70;;
38779;SDS011;29273;49.962;9.768;2023-06-22T07:55:18;5.38;;;4.88;;
38779;SDS011;29273;49.962;9.768;2023-06-22T07:57:43;5.07;;;4.68;;
38779;SDS011;29273;49.962;9.768;2023-06-22T08:00:09;4.90;;;4.50;;
38779;SDS011;29273;49.962;9.768;2023-06-22T08:02:43;4.90;;;4.50;;
38779;SDS011;29273;49.962;9.768;2023-06-22T08:05:10;5.60;;;5.10;;
38779;SDS011;29273;49.962;9.768;2023-06-22T08:07:37;5.53;;;5.03;;
38779;SDS011;29273;49.962;9.768;2023-06-22T08:10:09;5.20;;;4.78;;
38779;SDS011;29273;49.962;9.768;2023-06-22T08:12:36;6.88;;;5.25;;
38779;SDS011;29273;49.962;9.768;2023-06-22T08:15:01;5.35;;;4.90;;
38779;SDS011;29273;49.962;9.768;2023-06-22T08:17:28;5.38;;;4.88;;
38779;SDS011;29273;49.962;9.768;2023-06-22T08:19:53;5.15;;;4.75;;
38779;SDS011;29273;49.962;9.768;2023-06-22T08:22:19;5.22;;;4.72;;
38779;SDS011;29273;49.962;9.768;2023-06-22T08:24:44;5.30;;;4.90;;
38779;SDS011;29273;49.962;9.768;2023-06-22T08:27:10;5.30;;;4.80;;
38779;SDS011;29273;49.962;9.768;2023-06-22T08:29:40;5.93;;;5.43;;
38779;SDS011;29273;49.962;9.768;2023-06-22T08:32:10;5.57;;;5.07;;
38779;SDS011;29273;49.962;9.768;2023-06-22T08:34:36;5.20;;;4.80;;
38779;SDS011;29273;49.962;9.768;2023-06-22T08:37:01;5.22;;;4.57;;
38779;SDS011;29273;49.962;9.768;2023-06-22T08:39:31;5.32;;;4.82;;
38779;SDS011;29273;49.962;9.768;2023-06-22T08:41:57;6.07;;;5.57;;
38779;SDS011;29273;49.962;9.768;2023-06-22T08:44:22;5.63;;;5.13;;
38779;SDS011;29273;49.962;9.768;2023-06-22T08:46:48;5.78;;;5.28;;
38779;SDS011;29273;49.962;9.768;2023-06-22T08:49:13;5.40;;;4.90;;
38779;SDS011;29273;49.962;9.768;2023-06-22T08:51:39;6.03;;;5.53;;
38779;SDS011;29273;49.962;9.768;2023-06-22T08:54:04;5.70;;;5.20;;
38779;SDS011;29273;49.962;9.768;2023-06-22T08:56:30;5.43;;;5.03;;
38779;SDS011;29273;49.962;9.768;2023-06-22T08:58:55;5.03;;;4.63;;
38779;SDS011;29273;49.962;9.768;2023-06-22T09:01:21;5.68;;;5.20;;
38779;SDS011;29273;49.962;9.768;2023-06-22T09:03:47;5.68;;;5.18;;
38779;SDS011;29273;49.962;9.768;2023-06-22T09:06:20;5.32;;;4.93;;
38779;SDS011;29273;49.962;9.768;2023-06-22T09:08:46;5.22;;;4.82;;
38779;SDS011;29273;49.962;9.768;2023-06-22T09:11:12;5.80;;;5.30;;
38779;SDS011;29273;49.962;9.768;2023-06-22T09:13:38;5.15;;;4.72;;
38779;SDS011;29273;49.962;9.768;2023-06-22T09:16:04;5.80;;;5.30;;
38779;SDS011;29273;49.962;9.768;2023-06-22T09:18:29;5.07;;;4.68;;
38779;SDS011;29273;49.962;9.768;2023-06-22T09:20:55;5.13;;;4.72;;
38779;SDS011;29273;49.962;9.768;2023-06-22T09:23:21;5.63;;;5.13;;
38779;SDS011;29273;49.962;9.768;2023-06-22T09:25:47;6.10;;;5.60;;
38779;SDS011;29273;49.962;9.768;2023-06-22T09:28:13;5.50;;;5.10;;
38779;SDS011;29273;49.962;9.768;2023-06-22T09:30:39;5.40;;;4.95;;
38779;SDS011;29273;49.962;9.768;2023-06-22T09:33:04;5.35;;;4.95;;
38779;SDS011;29273;49.962;9.768;2023-06-22T09:35:30;5.40;;;4.93;;
38779;SDS011;29273;49.962;9.768;2023-06-22T09:37:55;6.18;;;5.63;;
38779;SDS011;29273;49.962;9.768;2023-06-22T09:40:21;5.82;;;5.32;;
38779;SDS011;29273;49.962;9.768;2023-06-22T09:42:46;5.35;;;4.85;;
38779;SDS011;29273;49.962;9.768;2023-06-22T09:45:12;5.18;;;4.78;;
38779;SDS011;29273;49.962;9.768;2023-06-22T09:47:37;5.13;;;4.72;;
38779;SDS011;29273;49.962;9.768;2023-06-22T09:50:03;5.45;;;4.95;;
38779;SDS011;29273;49.962;9.768;2023-06-22T09:52:29;5.80;;;5.22;;
38779;SDS011;29273;49.962;9.768;2023-06-22T09:54:55;6.00;;;5.32;;
38779;SDS011;29273;49.962;9.768;2023-06-22T09:57:20;5.85;;;5.35;;
38779;SDS011;29273;49.962;9.768;2023-06-22T09:59:45;5.90;;;5.40;;
38779;SDS011;29273;49.962;9.768;2023-06-22T10:02:11;6.65;;;6.05;;
38779;SDS011;29273;49.962;9.768;2023-06-22T10:04:36;5.70;;;5.20;;
38779;SDS011;29273;49.962;9.768;2023-06-22T10:07:02;6.05;;;5.55;;
38779;SDS011;29273;49.962;9.768;2023-06-22T10:09:28;5.72;;;5.22;;
38779;SDS011;29273;49.962;9.768;2023-06-22T10:11:53;5.88;;;5.38;;
38779;SDS011;29273;49.962;9.768;2023-06-22T10:14:19;5.70;;;5.20;;
38779;SDS011;29273;49.962;9.768;2023-06-22T10:16:45;5.43;;;4.97;;
38779;SDS011;29273;49.962;9.768;2023-06-22T10:19:10;6.30;;;5.40;;
38779;SDS011;29273;49.962;9.768;2023-06-22T10:21:36;5.32;;;4.93;;
38779;SDS011;29273;49.962;9.768;2023-06-22T10:24:01;5.10;;;4.70;;
38779;SDS011;29273;49.962;9.768;2023-06-22T10:26:34;5.30;;;4.88;;
38779;SDS011;29273;49.962;9.768;2023-06-22T10:29:01;5.10;;;4.65;;
38779;SDS011;29273;49.962;9.768;2023-06-22T10:31:27;5.20;;;4.78;;
38779;SDS011;29273;49.962;9.768;2023-06-22T10:33:53;5.78;;;5.00;;
38779;SDS011;29273;49.962;9.768;2023-06-22T10:36:19;5.25;;;4.80;;
38779;SDS011;29273;49.962;9.768;2023-06-22T10:38:46;5.25;;;4.80;;
38779;SDS011;29273;49.962;9.768;2023-06-22T10:41:12;4.70;;;4.30;;
38779;SDS011;29273;49.962;9.768;2023-06-22T10:43:38;5.00;;;4.57;;
38779;SDS011;29273;49.962;9.768;2023-06-22T10:46:03;4.88;;;4.47;;
38779;SDS011;29273;49.962;9.768;2023-06-22T10:48:28;6.57;;;4.60;;
38779;SDS011;29273;49.962;9.768;2023-06-22T10:50:54;4.50;;;4.10;;
38779;SDS011;29273;49.962;9.768;2023-06-22T10:53:20;4.55;;;4.15;;
38779;SDS011;29273;49.962;9.768;2023-06-22T10:55:46;4.18;;;3.85;;
38779;SDS011;29273;49.962;9.768;2023-06-22T10:58:12;4.47;;;4.07;;
38779;SDS011;29273;49.962;9.768;2023-06-22T11:00:37;4.65;;;4.25;;
38779;SDS011;29273;49.962;9.768;2023-06-22T11:03:03;4.75;;;4.35;;
38779;SDS011;29273;49.962;9.768;2023-06-22T11:05:28;4.05;;;3.75;;
38779;SDS011;29273;49.962;9.768;2023-06-22T11:07:54;4.18;;;3.78;;
38779;SDS011;29273;49.962;9.768;2023-06-22T11:10:19;4.30;;;3.95;;
38779;SDS011;29273;49.962;9.768;2023-06-22T11:12:45;4.20;;;3.90;;
38779;SDS011;29273;49.962;9.768;2023-06-22T11:15:10;5.25;;;3.95;;
38779;SDS011;29273;49.962;9.768;2023-06-22T11:17:36;3.85;;;3.55;;
38779;SDS011;29273;49.962;9.768;2023-06-22T11:20:02;4.40;;;4.00;;
38779;SDS011;29273;49.962;9.768;2023-06-22T11:22:31;4.55;;;4.15;;
38779;SDS011;29273;49.962;9.768;2023-06-22T11:24:58;3.92;;;3.53;;
38779;SDS011;29273;49.962;9.768;2023-06-22T11:27:24;4.22;;;3.83;;
38779;SDS011;29273;49.962;9.768;2023-06-22T11:29:49;5.20;;;3.72;;
38779;SDS011;29273;49.962;9.768;2023-06-22T11:32:15;4.10;;;3.70;;
38779;SDS011;29273;49.962;9.768;2023-06-22T11:34:40;3.70;;;3.40;;
38779;SDS011;29273;49.962;9.768;2023-06-22T11:37:06;3.78;;;3.47;;
38779;SDS011;29273;49.962;9.768;2023-06-22T11:39:31;3.75;;;3.45;;
38779;SDS011;29273;49.962;9.768;2023-06-22T11:41:57;4.07;;;3.72;;
38779;SDS011;29273;49.962;9.768;2023-06-22T11:44:22;4.70;;;4.30;;
38779;SDS011;29273;49.962;9.768;2023-06-22T11:46:48;4.68;;;3.80;;
38779;SDS011;29273;49.962;9.768;2023-06-22T11:49:13;4.00;;;3.60;;
38779;SDS011;29273;49.962;9.768;2023-06-22T11:51:39;3.80;;;3.50;;
38779;SDS011;29273;49.962;9.768;2023-06-22T11:54:04;4.30;;;3.55;;
38779;SDS011;29273;49.962;9.768;2023-06-22T11:56:29;3.53;;;3.22;;
38779;SDS011;29273;49.962;9.768;2023-06-22T11:58:55;3.92;;;3.53;;
38779;SDS011;29273;49.962;9.768;2023-06-22T12:01:20;3.72;;;3.42;;
38779;SDS011;29273;49.962;9.768;2023-06-22T12:03:46;3.70;;;3.40;;
38779;SDS011;29273;49.962;9.768;2023-06-22T12:06:13;4.85;;;3.30;;
38779;SDS011;29273;49.962;9.768;2023-06-22T12:08:38;3.65;;;3.35;;
38779;SDS011;29273;49.962;9.768;2023-06-22T12:11:04;3.58;;;3.28;;
38779;SDS011;29273;49.962;9.768;2023-06-22T12:13:29;4.63;;;4.10;;
38779;SDS011;29273;49.962;9.768;2023-06-22T12:15:55;3.53;;;3.22;;
38779;SDS011;29273;49.962;9.768;2023-06-22T12:18:20;3.38;;;3.15;;
38779;SDS011;29273;49.962;9.768;2023-06-22T12:20:46;5.95;;;3.67;;
38779;SDS011;29273;49.962;9.768;2023-06-22T12:23:12;3.60;;;3.30;;
38779;SDS011;29273;49.962;9.768;2023-06-22T12:25:38;3.22;;;2.92;;
38779;SDS011;29273;49.962;9.768;2023-06-22T12:28:04;3.55;;;3.25;;
38779;SDS011;29273;49.962;9.768;2023-06-22T12:30:30;3.40;;;3.10;;
38779;SDS011;29273;49.962;9.768;2023-06-22T12:32:55;3.65;;;3.35;;
38779;SDS011;29273;49.962;9.768;2023-06-22T12:35:21;3.78;;;3.40;;
38779;SDS011;29273;49.962;9.768;2023-06-22T12:37:46;3.03;;;2.72;;
38779;SDS011;29273;49.962;9.768;2023-06-22T12:40:12;3.25;;;2.92;;
38779;SDS011;29273;49.962;9.768;2023-06-22T12:42:37;3.40;;;3.10;;
38779;SDS011;29273;49.962;9.768;2023-06-22T12:45:03;3.65;;;3.33;;
38779;SDS011;29273;49.962;9.768;2023-06-22T12:47:30;3.30;;;3.00;;
38779;SDS011;29273;49.962;9.768;2023-06-22T12:49:55;3.72;;;2.90;;
38779;SDS011;29273;49.962;9.768;2023-06-22T12:52:20;2.92;;;2.63;;
38779;SDS011;29273;49.962;9.768;2023-06-22T12:54:46;3.35;;;2.70;;
38779;SDS011;29273;49.962;9.768;2023-06-22T12:57:11;3.17;;;2.85;;
38779;SDS011;29273;49.962;9.768;2023-06-22T12:59:37;2.85;;;2.58;;
38779;SDS011;29273;49.962;9.768;2023-06-22T13:02:02;3.20;;;3.00;;
38779;SDS011;29273;49.962;9.768;2023-06-22T13:04:28;3.30;;;3.00;;
38779;SDS011;29273;49.962;9.768;2023-06-22T13:06:53;3.33;;;3.03;;
38779;SDS011;29273;49.962;9.768;2023-06-22T13:09:19;2.72;;;2.35;;
38779;SDS011;29273;49.962;9.768;2023-06-22T13:11:45;3.65;;;2.90;;
38779;SDS011;29273;49.962;9.768;2023-06-22T13:14:10;3.08;;;2.80;;
38779;SDS011;29273;49.962;9.768;2023-06-22T13:16:36;2.97;;;2.67;;
38779;SDS011;29273;49.962;9.768;2023-06-22T13:19:01;4.38;;;3.10;;
38779;SDS011;29273;49.962;9.768;2023-06-22T13:21:27;2.95;;;2.60;;
38779;SDS011;29273;49.962;9.768;2023-06-22T13:23:52;2.70;;;2.50;;
38779;SDS011;29273;49.962;9.768;2023-06-22T13:26:18;2.85;;;2.58;;
38779;SDS011;29273;49.962;9.768;2023-06-22T13:28:43;3.38;;;2.63;;
38779;SDS011;29273;49.962;9.768;2023-06-22T13:31:09;2.85;;;2.65;;
38779;SDS011;29273;49.962;9.768;2023-06-22T13:33:34;3.00;;;2.67;;
38779;SDS011;29273;49.962;9.768;2023-06-22T13:35:59;4.70;;;3.03;;
38779;SDS011;29273;49.962;9.768;2023-06-22T13:38:25;3.67;;;2.60;;
38779;SDS011;29273;49.962;9.768;2023-06-22T13:40:50;3.30;;;2.47;;
38779;SDS011;29273;49.962;9.768;2023-06-22T13:43:16;4.15;;;2.70;;
38779;SDS011;29273;49.962;9.768;2023-06-22T13:45:42;2.90;;;2.60;;
38779;SDS011;29273;49.962;9.768;2023-06-22T13:48:08;5.05;;;3.17;;
38779;SDS011;29273;49.962;9.768;2023-06-22T13:50:34;3.25;;;2.50;;
38779;SDS011;29273;49.962;9.768;2023-06-22T13:52:59;4.78;;;2.83;;
38779;SDS011;29273;49.962;9.768;2023-06-22T13:55:25;4.57;;;2.72;;
38779;SDS011;29273;49.962;9.768;2023-06-22T13:57:51;3.60;;;3.13;;
38779;SDS011;29273;49.962;9.768;2023-06-22T14:00:17;5.10;;;2.97;;
38779;SDS011;29273;49.962;9.768;2023-06-22T14:02:43;3.03;;;2.58;;
38779;SDS011;29273;49.962;9.768;2023-06-22T14:05:09;3.47;;;2.75;;
38779;SDS011;29273;49.962;9.768;2023-06-22T14:07:36;3.42;;;2.60;;
38779;SDS011;29273;49.962;9.768;2023-06-22T14:10:02;3.35;;;2.95;;
38779;SDS011;29273;49.962;9.768;2023-06-22T14:12:28;3.58;;;2.67;;
38779;SDS011;29273;49.962;9.768;2023-06-22T14:14:54;4.05;;;3.05;;
38779;SDS011;29273;49.962;9.768;2023-06-22T14:17:19;3.20;;;2.80;;
38779;SDS011;29273;49.962;9.768;2023-06-22T14:19:50;3.25;;;2.65;;
38779;SDS011;29273;49.962;9.768;2023-06-22T14:22:20;2.88;;;2.60;;
38779;SDS011;29273;49.962;9.768;2023-06-22T14:24:49;3.03;;;2.50;;
38779;SDS011;29273;49.962;9.768;2023-06-22T14:27:15;2.58;;;2.38;;
38779;SDS011;29273;49.962;9.768;2023-06-22T14:29:41;3.33;;;2.63;;
38779;SDS011;29273;49.962;9.768;2023-06-22T14:32:07;3.42;;;3.00;;
38779;SDS011;29273;49.962;9.768;2023-06-22T14:34:34;2.45;;;2.25;;
38779;SDS011;29273;49.962;9.768;2023-06-22T14:37:04;3.85;;;2.78;;
38779;SDS011;29273;49.962;9.768;2023-06-22T14:39:30;3.15;;;2.42;;
38779;SDS011;29273;49.962;9.768;2023-06-22T14:41:56;2.95;;;2.42;;
38779;SDS011;29273;49.962;9.768;2023-06-22T14:44:21;4.05;;;3.22;;
38779;SDS011;29273;49.962;9.768;2023-06-22T14:46:47;4.10;;;2.58;;
38779;SDS011;29273;49.962;9.768;2023-06-22T14:49:12;3.08;;;2.78;;